sensor_id;sensor_type;location;lat;lon;timestamp;P1;durP1;ratioP1;P2;durP2;ratioP2
50417;SDS011;36346;48.280;14.292;2023-04-24T00:00:11;1.95;;;1.95;;
50417;SDS011;36346;48.280;14.292;2023-04-24T00:02:42;1.78;;;1.78;;
50417;SDS011;36346;48.280;14.292;2023-04-24T00:05:15;1.74;;;1.74;;
50417;SDS011;36346;48.280;14.292;2023-04-24T00:07:44;1.78;;;1.78;;
50417;SDS011;36346;48.280;14.292;2023-04-24T00:10:12;1.60;;;1.60;;
50417;SDS011;36346;48.280;14.292;2023-04-24T00:12:40;1.59;;;1.59;;
50417;SDS011;36346;48.280;14.292;2023-04-24T00:15:09;1.56;;;1.56;;
50417;SDS011;36346;48.280;14.292;2023-04-24T00:17:37;1.81;;;1.81;;
50417;SDS011;36346;48.280;14.292;2023-04-24T00:20:05;1.88;;;1.88;;
50417;SDS011;36346;48.280;14.292;2023-04-24T00:22:34;1.79;;;1.79;;
50417;SDS011;36346;48.280;14.292;2023-04-24T00:25:02;1.57;;;1.57;;
50417;SDS011;36346;48.280;14.292;2023-04-24T00:27:30;2.17;;;2.17;;
50417;SDS011;36346;48.280;14.292;2023-04-24T00:29:58;1.92;;;1.92;;
50417;SDS011;36346;48.280;14.292;2023-04-24T00:32:26;2.09;;;2.09;;
50417;SDS011;36346;48.280;14.292;2023-04-24T00:34:55;2.14;;;2.14;;
50417;SDS011;36346;48.280;14.292;2023-04-24T00:37:23;2.23;;;2.23;;
50417;SDS011;36346;48.280;14.292;2023-04-24T00:39:51;2.18;;;2.18;;
50417;SDS011;36346;48.280;14.292;2023-04-24T00:42:19;2.28;;;2.28;;
50417;SDS011;36346;48.280;14.292;2023-04-24T00:44:47;2.38;;;2.38;;
50417;SDS011;36346;48.280;14.292;2023-04-24T00:47:16;2.37;;;2.37;;
50417;SDS011;36346;48.280;14.292;2023-04-24T00:49:43;2.09;;;2.09;;
50417;SDS011;36346;48.280;14.292;2023-04-24T00:52:12;2.52;;;2.52;;
50417;SDS011;36346;48.280;14.292;2023-04-24T00:54:45;2.17;;;2.17;;
50417;SDS011;36346;48.280;14.292;2023-04-24T00:57:13;2.34;;;2.34;;
50417;SDS011;36346;48.280;14.292;2023-04-24T00:59:43;2.42;;;2.42;;
50417;SDS011;36346;48.280;14.292;2023-04-24T01:02:11;2.35;;;2.35;;
50417;SDS011;36346;48.280;14.292;2023-04-24T01:04:40;2.28;;;2.28;;
50417;SDS011;36346;48.280;14.292;2023-04-24T01:07:08;2.14;;;2.14;;
50417;SDS011;36346;48.280;14.292;2023-04-24T01:09:39;2.26;;;2.26;;
50417;SDS011;36346;48.280;14.292;2023-04-24T01:12:11;2.40;;;2.40;;
50417;SDS011;36346;48.280;14.292;2023-04-24T01:14:40;2.25;;;2.25;;
50417;SDS011;36346;48.280;14.292;2023-04-24T01:17:08;2.37;;;2.37;;
50417;SDS011;36346;48.280;14.292;2023-04-24T01:19:37;2.31;;;2.31;;
50417;SDS011;36346;48.280;14.292;2023-04-24T01:22:15;2.42;;;2.42;;
50417;SDS011;36346;48.280;14.292;2023-04-24T01:24:43;2.42;;;2.42;;
50417;SDS011;36346;48.280;14.292;2023-04-24T01:27:12;2.08;;;2.08;;
50417;SDS011;36346;48.280;14.292;2023-04-24T01:29:40;2.31;;;2.31;;
50417;SDS011;36346;48.280;14.292;2023-04-24T01:32:10;2.24;;;2.24;;
50417;SDS011;36346;48.280;14.292;2023-04-24T01:34:38;2.15;;;2.15;;
50417;SDS011;36346;48.280;14.292;2023-04-24T01:37:06;2.23;;;2.23;;
50417;SDS011;36346;48.280;14.292;2023-04-24T01:39:34;1.95;;;1.95;;
50417;SDS011;36346;48.280;14.292;2023-04-24T01:42:02;1.95;;;1.95;;
50417;SDS011;36346;48.280;14.292;2023-04-24T01:44:30;2.03;;;2.03;;
50417;SDS011;36346;48.280;14.292;2023-04-24T01:46:58;2.00;;;2.00;;
50417;SDS011;36346;48.280;14.292;2023-04-24T01:49:30;1.99;;;1.99;;
50417;SDS011;36346;48.280;14.292;2023-04-24T01:51:58;1.95;;;1.95;;
50417;SDS011;36346;48.280;14.292;2023-04-24T01:54:26;1.83;;;1.83;;
50417;SDS011;36346;48.280;14.292;2023-04-24T01:56:55;1.93;;;1.93;;
50417;SDS011;36346;48.280;14.292;2023-04-24T01:59:23;1.72;;;1.72;;
50417;SDS011;36346;48.280;14.292;2023-04-24T02:01:53;1.67;;;1.67;;
50417;SDS011;36346;48.280;14.292;2023-04-24T02:04:21;1.57;;;1.57;;
50417;SDS011;36346;48.280;14.292;2023-04-24T02:06:49;1.72;;;1.72;;
50417;SDS011;36346;48.280;14.292;2023-04-24T02:09:16;1.77;;;1.77;;
50417;SDS011;36346;48.280;14.292;2023-04-24T02:11:44;1.67;;;1.67;;
50417;SDS011;36346;48.280;14.292;2023-04-24T02:14:12;1.76;;;1.76;;
50417;SDS011;36346;48.280;14.292;2023-04-24T02:16:40;1.78;;;1.78;;
50417;SDS011;36346;48.280;14.292;2023-04-24T02:19:08;1.79;;;1.79;;
50417;SDS011;36346;48.280;14.292;2023-04-24T02:21:37;1.50;;;1.50;;
50417;SDS011;36346;48.280;14.292;2023-04-24T02:24:05;1.92;;;1.92;;
50417;SDS011;36346;48.280;14.292;2023-04-24T02:26:33;1.87;;;1.87;;
50417;SDS011;36346;48.280;14.292;2023-04-24T02:29:00;1.92;;;1.92;;
50417;SDS011;36346;48.280;14.292;2023-04-24T02:31:29;1.75;;;1.75;;
50417;SDS011;36346;48.280;14.292;2023-04-24T02:33:57;1.81;;;1.81;;
50417;SDS011;36346;48.280;14.292;2023-04-24T02:36:24;1.73;;;1.73;;
50417;SDS011;36346;48.280;14.292;2023-04-24T02:38:53;1.69;;;1.69;;
50417;SDS011;36346;48.280;14.292;2023-04-24T02:41:20;1.85;;;1.85;;
50417;SDS011;36346;48.280;14.292;2023-04-24T02:43:48;1.66;;;1.66;;
50417;SDS011;36346;48.280;14.292;2023-04-24T02:46:16;1.83;;;1.83;;
50417;SDS011;36346;48.280;14.292;2023-04-24T02:48:44;1.81;;;1.81;;
50417;SDS011;36346;48.280;14.292;2023-04-24T02:51:12;1.94;;;1.94;;
50417;SDS011;36346;48.280;14.292;2023-04-24T02:53:40;1.76;;;1.76;;
50417;SDS011;36346;48.280;14.292;2023-04-24T02:56:08;1.84;;;1.84;;
50417;SDS011;36346;48.280;14.292;2023-04-24T02:58:36;1.96;;;1.96;;
50417;SDS011;36346;48.280;14.292;2023-04-24T03:01:04;1.82;;;1.82;;
50417;SDS011;36346;48.280;14.292;2023-04-24T03:03:32;1.95;;;1.95;;
50417;SDS011;36346;48.280;14.292;2023-04-24T03:06:00;1.93;;;1.93;;
50417;SDS011;36346;48.280;14.292;2023-04-24T03:08:29;1.94;;;1.94;;
50417;SDS011;36346;48.280;14.292;2023-04-24T03:10:57;2.89;;;2.89;;
50417;SDS011;36346;48.280;14.292;2023-04-24T03:13:24;3.70;;;3.70;;
50417;SDS011;36346;48.280;14.292;2023-04-24T03:15:52;2.43;;;2.43;;
50417;SDS011;36346;48.280;14.292;2023-04-24T03:18:21;2.04;;;2.04;;
50417;SDS011;36346;48.280;14.292;2023-04-24T03:20:51;4.31;;;4.31;;
50417;SDS011;36346;48.280;14.292;2023-04-24T03:23:19;2.39;;;2.39;;
50417;SDS011;36346;48.280;14.292;2023-04-24T03:25:47;2.19;;;2.19;;
50417;SDS011;36346;48.280;14.292;2023-04-24T03:28:16;2.11;;;2.11;;
50417;SDS011;36346;48.280;14.292;2023-04-24T03:30:50;2.18;;;2.18;;
50417;SDS011;36346;48.280;14.292;2023-04-24T03:33:20;2.21;;;2.21;;
50417;SDS011;36346;48.280;14.292;2023-04-24T03:35:59;2.21;;;2.21;;
50417;SDS011;36346;48.280;14.292;2023-04-24T03:38:35;2.42;;;2.42;;
50417;SDS011;36346;48.280;14.292;2023-04-24T03:41:23;2.20;;;2.20;;
50417;SDS011;36346;48.280;14.292;2023-04-24T03:43:58;2.48;;;2.48;;
50417;SDS011;36346;48.280;14.292;2023-04-24T03:46:26;2.69;;;2.69;;
50417;SDS011;36346;48.280;14.292;2023-04-24T03:48:58;2.99;;;2.99;;
50417;SDS011;36346;48.280;14.292;2023-04-24T03:51:30;2.85;;;2.85;;
50417;SDS011;36346;48.280;14.292;2023-04-24T03:54:09;2.90;;;2.90;;
50417;SDS011;36346;48.280;14.292;2023-04-24T03:56:39;2.99;;;2.99;;
50417;SDS011;36346;48.280;14.292;2023-04-24T03:59:07;2.93;;;2.93;;
50417;SDS011;36346;48.280;14.292;2023-04-24T04:01:36;3.02;;;3.02;;
50417;SDS011;36346;48.280;14.292;2023-04-24T04:04:13;3.04;;;3.04;;
50417;SDS011;36346;48.280;14.292;2023-04-24T04:06:42;3.31;;;3.31;;
50417;SDS011;36346;48.280;14.292;2023-04-24T04:09:11;3.26;;;3.26;;
50417;SDS011;36346;48.280;14.292;2023-04-24T04:11:39;3.47;;;3.47;;
50417;SDS011;36346;48.280;14.292;2023-04-24T04:14:07;4.23;;;4.23;;
50417;SDS011;36346;48.280;14.292;2023-04-24T04:16:39;3.83;;;3.83;;
50417;SDS011;36346;48.280;14.292;2023-04-24T04:19:08;3.85;;;3.85;;
50417;SDS011;36346;48.280;14.292;2023-04-24T04:21:36;4.47;;;4.47;;
50417;SDS011;36346;48.280;14.292;2023-04-24T04:24:19;4.30;;;4.30;;
50417;SDS011;36346;48.280;14.292;2023-04-24T04:26:49;4.44;;;4.44;;
50417;SDS011;36346;48.280;14.292;2023-04-24T04:29:31;3.99;;;3.99;;
50417;SDS011;36346;48.280;14.292;2023-04-24T04:32:00;3.82;;;3.82;;
50417;SDS011;36346;48.280;14.292;2023-04-24T04:34:29;4.21;;;4.21;;
50417;SDS011;36346;48.280;14.292;2023-04-24T04:36:57;4.18;;;4.18;;
50417;SDS011;36346;48.280;14.292;2023-04-24T04:39:44;3.94;;;3.94;;
50417;SDS011;36346;48.280;14.292;2023-04-24T04:42:21;3.83;;;3.83;;
50417;SDS011;36346;48.280;14.292;2023-04-24T04:44:51;3.67;;;3.67;;
50417;SDS011;36346;48.280;14.292;2023-04-24T04:47:24;3.54;;;3.54;;
50417;SDS011;36346;48.280;14.292;2023-04-24T04:49:54;3.82;;;3.82;;
50417;SDS011;36346;48.280;14.292;2023-04-24T04:52:25;3.51;;;3.51;;
50417;SDS011;36346;48.280;14.292;2023-04-24T04:55:22;3.33;;;3.33;;
50417;SDS011;36346;48.280;14.292;2023-04-24T04:58:25;3.43;;;3.43;;
50417;SDS011;36346;48.280;14.292;2023-04-24T05:00:57;2.93;;;2.93;;
50417;SDS011;36346;48.280;14.292;2023-04-24T05:03:30;2.87;;;2.87;;
50417;SDS011;36346;48.280;14.292;2023-04-24T05:06:06;3.20;;;3.20;;
50417;SDS011;36346;48.280;14.292;2023-04-24T05:08:37;2.53;;;2.53;;
50417;SDS011;36346;48.280;14.292;2023-04-24T05:11:08;2.64;;;2.64;;
50417;SDS011;36346;48.280;14.292;2023-04-24T05:13:38;2.83;;;2.83;;
50417;SDS011;36346;48.280;14.292;2023-04-24T05:16:13;2.84;;;2.84;;
50417;SDS011;36346;48.280;14.292;2023-04-24T05:18:41;2.82;;;2.82;;
50417;SDS011;36346;48.280;14.292;2023-04-24T05:21:12;2.91;;;2.91;;
50417;SDS011;36346;48.280;14.292;2023-04-24T05:23:42;2.52;;;2.52;;
50417;SDS011;36346;48.280;14.292;2023-04-24T05:26:13;2.42;;;2.42;;
50417;SDS011;36346;48.280;14.292;2023-04-24T05:28:42;2.17;;;2.17;;
50417;SDS011;36346;48.280;14.292;2023-04-24T05:31:12;3.36;;;3.35;;
50417;SDS011;36346;48.280;14.292;2023-04-24T05:33:40;2.34;;;2.34;;
50417;SDS011;36346;48.280;14.292;2023-04-24T05:36:08;1.87;;;1.87;;
50417;SDS011;36346;48.280;14.292;2023-04-24T05:38:36;2.08;;;2.08;;
50417;SDS011;36346;48.280;14.292;2023-04-24T05:41:04;2.42;;;2.42;;
50417;SDS011;36346;48.280;14.292;2023-04-24T05:43:32;2.56;;;2.55;;
50417;SDS011;36346;48.280;14.292;2023-04-24T05:46:00;2.09;;;2.08;;
50417;SDS011;36346;48.280;14.292;2023-04-24T05:48:28;1.90;;;1.90;;
50417;SDS011;36346;48.280;14.292;2023-04-24T05:50:56;1.43;;;1.43;;
50417;SDS011;36346;48.280;14.292;2023-04-24T05:53:25;1.16;;;1.16;;
50417;SDS011;36346;48.280;14.292;2023-04-24T05:55:53;1.38;;;1.38;;
50417;SDS011;36346;48.280;14.292;2023-04-24T05:58:21;1.40;;;1.40;;
50417;SDS011;36346;48.280;14.292;2023-04-24T06:00:49;1.67;;;1.67;;
50417;SDS011;36346;48.280;14.292;2023-04-24T06:03:17;1.34;;;1.34;;
50417;SDS011;36346;48.280;14.292;2023-04-24T06:05:49;1.14;;;1.13;;
50417;SDS011;36346;48.280;14.292;2023-04-24T06:08:18;1.06;;;1.06;;
50417;SDS011;36346;48.280;14.292;2023-04-24T06:10:47;1.32;;;1.30;;
50417;SDS011;36346;48.280;14.292;2023-04-24T06:13:17;1.27;;;1.25;;
50417;SDS011;36346;48.280;14.292;2023-04-24T06:16:03;1.32;;;1.30;;
50417;SDS011;36346;48.280;14.292;2023-04-24T06:18:35;1.46;;;1.44;;
50417;SDS011;36346;48.280;14.292;2023-04-24T06:21:03;1.34;;;1.32;;
50417;SDS011;36346;48.280;14.292;2023-04-24T06:23:31;1.48;;;1.46;;
50417;SDS011;36346;48.280;14.292;2023-04-24T06:26:00;1.55;;;1.53;;
50417;SDS011;36346;48.280;14.292;2023-04-24T06:28:27;1.60;;;1.58;;
50417;SDS011;36346;48.280;14.292;2023-04-24T06:30:55;1.74;;;1.72;;
50417;SDS011;36346;48.280;14.292;2023-04-24T06:33:23;2.28;;;2.26;;
50417;SDS011;36346;48.280;14.292;2023-04-24T06:35:52;1.75;;;1.73;;
50417;SDS011;36346;48.280;14.292;2023-04-24T06:38:20;3.60;;;3.56;;
50417;SDS011;36346;48.280;14.292;2023-04-24T06:40:48;3.99;;;3.94;;
50417;SDS011;36346;48.280;14.292;2023-04-24T06:43:16;2.26;;;2.24;;
50417;SDS011;36346;48.280;14.292;2023-04-24T06:45:45;1.21;;;1.21;;
50417;SDS011;36346;48.280;14.292;2023-04-24T06:48:14;1.65;;;1.64;;
50417;SDS011;36346;48.280;14.292;2023-04-24T06:50:42;1.69;;;1.67;;
50417;SDS011;36346;48.280;14.292;2023-04-24T06:53:10;1.60;;;1.58;;
50417;SDS011;36346;48.280;14.292;2023-04-24T06:55:40;1.40;;;1.37;;
50417;SDS011;36346;48.280;14.292;2023-04-24T06:58:08;1.30;;;1.28;;
50417;SDS011;36346;48.280;14.292;2023-04-24T07:00:36;1.14;;;1.13;;
50417;SDS011;36346;48.280;14.292;2023-04-24T07:03:04;1.23;;;1.21;;
50417;SDS011;36346;48.280;14.292;2023-04-24T07:05:33;1.38;;;1.37;;
50417;SDS011;36346;48.280;14.292;2023-04-24T07:08:02;1.13;;;1.13;;
50417;SDS011;36346;48.280;14.292;2023-04-24T07:10:30;1.94;;;1.93;;
50417;SDS011;36346;48.280;14.292;2023-04-24T07:12:58;1.43;;;1.43;;
50417;SDS011;36346;48.280;14.292;2023-04-24T07:15:26;1.50;;;1.50;;
50417;SDS011;36346;48.280;14.292;2023-04-24T07:17:54;1.25;;;1.25;;
50417;SDS011;36346;48.280;14.292;2023-04-24T07:20:22;1.19;;;1.19;;
50417;SDS011;36346;48.280;14.292;2023-04-24T07:22:50;1.22;;;1.22;;
50417;SDS011;36346;48.280;14.292;2023-04-24T07:25:19;1.62;;;1.61;;
50417;SDS011;36346;48.280;14.292;2023-04-24T07:27:47;1.25;;;1.24;;
50417;SDS011;36346;48.280;14.292;2023-04-24T07:30:16;1.40;;;1.39;;
50417;SDS011;36346;48.280;14.292;2023-04-24T07:32:44;1.25;;;1.25;;
50417;SDS011;36346;48.280;14.292;2023-04-24T07:35:12;2.21;;;2.21;;
50417;SDS011;36346;48.280;14.292;2023-04-24T07:37:39;1.78;;;1.78;;
50417;SDS011;36346;48.280;14.292;2023-04-24T07:40:13;1.98;;;1.97;;
50417;SDS011;36346;48.280;14.292;2023-04-24T07:42:41;1.38;;;1.38;;
50417;SDS011;36346;48.280;14.292;2023-04-24T07:45:09;1.16;;;1.16;;
50417;SDS011;36346;48.280;14.292;2023-04-24T07:47:37;1.11;;;1.11;;
50417;SDS011;36346;48.280;14.292;2023-04-24T07:50:05;1.37;;;1.37;;
50417;SDS011;36346;48.280;14.292;2023-04-24T07:52:33;1.23;;;1.23;;
50417;SDS011;36346;48.280;14.292;2023-04-24T07:55:02;1.51;;;1.51;;
50417;SDS011;36346;48.280;14.292;2023-04-24T07:57:31;1.25;;;1.25;;
50417;SDS011;36346;48.280;14.292;2023-04-24T07:59:59;3.60;;;3.60;;
50417;SDS011;36346;48.280;14.292;2023-04-24T08:02:37;2.60;;;2.60;;
50417;SDS011;36346;48.280;14.292;2023-04-24T08:05:06;1.16;;;1.16;;
50417;SDS011;36346;48.280;14.292;2023-04-24T08:07:34;1.18;;;1.18;;
50417;SDS011;36346;48.280;14.292;2023-04-24T08:10:03;2.19;;;2.19;;
50417;SDS011;36346;48.280;14.292;2023-04-24T08:12:31;2.20;;;2.20;;
50417;SDS011;36346;48.280;14.292;2023-04-24T08:14:59;2.81;;;2.81;;
50417;SDS011;36346;48.280;14.292;2023-04-24T08:17:27;1.78;;;1.78;;
50417;SDS011;36346;48.280;14.292;2023-04-24T08:19:55;1.66;;;1.65;;
50417;SDS011;36346;48.280;14.292;2023-04-24T08:22:30;2.14;;;2.13;;
50417;SDS011;36346;48.280;14.292;2023-04-24T08:24:59;2.03;;;2.02;;
50417;SDS011;36346;48.280;14.292;2023-04-24T08:27:28;1.32;;;1.31;;
50417;SDS011;36346;48.280;14.292;2023-04-24T08:29:56;1.15;;;1.15;;
50417;SDS011;36346;48.280;14.292;2023-04-24T08:32:27;1.21;;;1.21;;
50417;SDS011;36346;48.280;14.292;2023-04-24T08:34:56;1.20;;;1.20;;
50417;SDS011;36346;48.280;14.292;2023-04-24T08:37:25;1.27;;;1.27;;
50417;SDS011;36346;48.280;14.292;2023-04-24T08:39:54;1.33;;;1.33;;
50417;SDS011;36346;48.280;14.292;2023-04-24T08:42:22;1.27;;;1.27;;
50417;SDS011;36346;48.280;14.292;2023-04-24T08:44:50;1.26;;;1.26;;
50417;SDS011;36346;48.280;14.292;2023-04-24T08:47:18;1.44;;;1.44;;
50417;SDS011;36346;48.280;14.292;2023-04-24T08:49:48;1.28;;;1.28;;
50417;SDS011;36346;48.280;14.292;2023-04-24T08:52:18;1.33;;;1.33;;
50417;SDS011;36346;48.280;14.292;2023-04-24T08:54:47;1.36;;;1.36;;
50417;SDS011;36346;48.280;14.292;2023-04-24T08:57:15;1.40;;;1.40;;
50417;SDS011;36346;48.280;14.292;2023-04-24T08:59:44;1.45;;;1.44;;
50417;SDS011;36346;48.280;14.292;2023-04-24T09:02:12;2.68;;;2.66;;
50417;SDS011;36346;48.280;14.292;2023-04-24T09:04:42;2.40;;;2.39;;
50417;SDS011;36346;48.280;14.292;2023-04-24T09:07:11;2.24;;;2.24;;
50417;SDS011;36346;48.280;14.292;2023-04-24T09:09:39;1.46;;;1.46;;
50417;SDS011;36346;48.280;14.292;2023-04-24T09:12:09;1.36;;;1.36;;
50417;SDS011;36346;48.280;14.292;2023-04-24T09:14:37;1.48;;;1.48;;
50417;SDS011;36346;48.280;14.292;2023-04-24T09:17:10;1.74;;;1.73;;
50417;SDS011;36346;48.280;14.292;2023-04-24T09:19:41;1.97;;;1.96;;
50417;SDS011;36346;48.280;14.292;2023-04-24T09:22:09;2.15;;;2.13;;
50417;SDS011;36346;48.280;14.292;2023-04-24T09:24:38;2.46;;;2.43;;
50417;SDS011;36346;48.280;14.292;2023-04-24T09:27:06;2.40;;;2.36;;
50417;SDS011;36346;48.280;14.292;2023-04-24T09:29:37;1.41;;;1.39;;
50417;SDS011;36346;48.280;14.292;2023-04-24T09:32:19;1.57;;;1.56;;
50417;SDS011;36346;48.280;14.292;2023-04-24T09:34:49;1.53;;;1.52;;
50417;SDS011;36346;48.280;14.292;2023-04-24T09:37:28;1.75;;;1.74;;
50417;SDS011;36346;48.280;14.292;2023-04-24T09:40:10;1.68;;;1.68;;
50417;SDS011;36346;48.280;14.292;2023-04-24T09:42:46;1.62;;;1.62;;
50417;SDS011;36346;48.280;14.292;2023-04-24T09:45:19;2.67;;;2.66;;
50417;SDS011;36346;48.280;14.292;2023-04-24T09:47:51;2.97;;;2.96;;
50417;SDS011;36346;48.280;14.292;2023-04-24T09:50:21;2.39;;;2.38;;
50417;SDS011;36346;48.280;14.292;2023-04-24T09:52:56;2.16;;;2.15;;
50417;SDS011;36346;48.280;14.292;2023-04-24T09:55:26;1.59;;;1.59;;
50417;SDS011;36346;48.280;14.292;2023-04-24T09:57:57;1.61;;;1.60;;
50417;SDS011;36346;48.280;14.292;2023-04-24T10:00:28;1.48;;;1.48;;
50417;SDS011;36346;48.280;14.292;2023-04-24T10:02:58;1.65;;;1.65;;
50417;SDS011;36346;48.280;14.292;2023-04-24T10:05:29;3.11;;;3.10;;
50417;SDS011;36346;48.280;14.292;2023-04-24T10:08:10;2.37;;;2.36;;
50417;SDS011;36346;48.280;14.292;2023-04-24T10:10:40;2.03;;;2.02;;
50417;SDS011;36346;48.280;14.292;2023-04-24T10:13:09;1.85;;;1.85;;
50417;SDS011;36346;48.280;14.292;2023-04-24T10:15:38;1.75;;;1.75;;
50417;SDS011;36346;48.280;14.292;2023-04-24T10:18:08;1.63;;;1.63;;
50417;SDS011;36346;48.280;14.292;2023-04-24T10:20:38;1.66;;;1.66;;
50417;SDS011;36346;48.280;14.292;2023-04-24T10:23:08;1.93;;;1.93;;
50417;SDS011;36346;48.280;14.292;2023-04-24T10:25:36;1.81;;;1.81;;
50417;SDS011;36346;48.280;14.292;2023-04-24T10:28:04;1.49;;;1.49;;
50417;SDS011;36346;48.280;14.292;2023-04-24T10:30:34;2.06;;;2.06;;
50417;SDS011;36346;48.280;14.292;2023-04-24T10:33:03;1.95;;;1.95;;
50417;SDS011;36346;48.280;14.292;2023-04-24T10:35:34;1.60;;;1.60;;
50417;SDS011;36346;48.280;14.292;2023-04-24T10:38:11;1.65;;;1.64;;
50417;SDS011;36346;48.280;14.292;2023-04-24T10:40:42;1.23;;;1.22;;
50417;SDS011;36346;48.280;14.292;2023-04-24T10:43:10;1.41;;;1.40;;
50417;SDS011;36346;48.280;14.292;2023-04-24T10:46:03;1.53;;;1.53;;
50417;SDS011;36346;48.280;14.292;2023-04-24T10:48:33;1.16;;;1.15;;
50417;SDS011;36346;48.280;14.292;2023-04-24T10:51:01;1.30;;;1.30;;
50417;SDS011;36346;48.280;14.292;2023-04-24T10:53:29;1.22;;;1.22;;
50417;SDS011;36346;48.280;14.292;2023-04-24T10:58:37;1.19;;;1.19;;
50417;SDS011;36346;48.280;14.292;2023-04-24T11:01:06;1.33;;;1.33;;
50417;SDS011;36346;48.280;14.292;2023-04-24T11:03:35;1.64;;;1.64;;
50417;SDS011;36346;48.280;14.292;2023-04-24T11:06:08;1.89;;;1.89;;
50417;SDS011;36346;48.280;14.292;2023-04-24T11:08:42;1.45;;;1.45;;
50417;SDS011;36346;48.280;14.292;2023-04-24T11:11:14;3.23;;;3.23;;
50417;SDS011;36346;48.280;14.292;2023-04-24T11:19:06;1.31;;;1.31;;
50417;SDS011;36346;48.280;14.292;2023-04-24T11:21:49;1.17;;;1.17;;
50417;SDS011;36346;48.280;14.292;2023-04-24T11:24:28;1.97;;;1.97;;
50417;SDS011;36346;48.280;14.292;2023-04-24T11:29:48;1.56;;;1.56;;
50417;SDS011;36346;48.280;14.292;2023-04-24T11:32:26;2.67;;;2.67;;
50417;SDS011;36346;48.280;14.292;2023-04-24T11:37:41;1.38;;;1.38;;
50417;SDS011;36346;48.280;14.292;2023-04-24T11:40:13;1.42;;;1.42;;
50417;SDS011;36346;48.280;14.292;2023-04-24T11:42:46;1.40;;;1.40;;
50417;SDS011;36346;48.280;14.292;2023-04-24T11:45:16;1.50;;;1.50;;
50417;SDS011;36346;48.280;14.292;2023-04-24T11:47:45;1.95;;;1.95;;
50417;SDS011;36346;48.280;14.292;2023-04-24T11:50:14;1.68;;;1.68;;
50417;SDS011;36346;48.280;14.292;2023-04-24T11:52:45;1.63;;;1.63;;
50417;SDS011;36346;48.280;14.292;2023-04-24T11:57:43;1.35;;;1.35;;
50417;SDS011;36346;48.280;14.292;2023-04-24T12:00:16;1.34;;;1.34;;
50417;SDS011;36346;48.280;14.292;2023-04-24T12:02:46;1.33;;;1.33;;
50417;SDS011;36346;48.280;14.292;2023-04-24T12:05:19;1.39;;;1.39;;
50417;SDS011;36346;48.280;14.292;2023-04-24T12:07:48;1.83;;;1.83;;
50417;SDS011;36346;48.280;14.292;2023-04-24T12:10:20;1.96;;;1.96;;
50417;SDS011;36346;48.280;14.292;2023-04-24T12:12:50;1.42;;;1.42;;
50417;SDS011;36346;48.280;14.292;2023-04-24T12:15:19;1.11;;;1.11;;
50417;SDS011;36346;48.280;14.292;2023-04-24T12:17:49;1.41;;;1.41;;
50417;SDS011;36346;48.280;14.292;2023-04-24T12:20:23;1.97;;;1.97;;
50417;SDS011;36346;48.280;14.292;2023-04-24T12:22:54;2.06;;;2.05;;
50417;SDS011;36346;48.280;14.292;2023-04-24T12:25:27;1.53;;;1.53;;
50417;SDS011;36346;48.280;14.292;2023-04-24T12:30:32;0.79;;;0.79;;
50417;SDS011;36346;48.280;14.292;2023-04-24T12:33:02;0.75;;;0.75;;
50417;SDS011;36346;48.280;14.292;2023-04-24T12:35:32;0.97;;;0.96;;
50417;SDS011;36346;48.280;14.292;2023-04-24T12:38:05;0.99;;;0.99;;
50417;SDS011;36346;48.280;14.292;2023-04-24T12:40:34;1.31;;;1.30;;
50417;SDS011;36346;48.280;14.292;2023-04-24T12:43:12;1.45;;;1.44;;
50417;SDS011;36346;48.280;14.292;2023-04-24T12:45:41;1.16;;;1.16;;
50417;SDS011;36346;48.280;14.292;2023-04-24T12:48:09;1.44;;;1.43;;
50417;SDS011;36346;48.280;14.292;2023-04-24T12:50:38;1.26;;;1.26;;
50417;SDS011;36346;48.280;14.292;2023-04-24T12:53:07;1.15;;;1.15;;
50417;SDS011;36346;48.280;14.292;2023-04-24T12:55:36;1.06;;;1.05;;
50417;SDS011;36346;48.280;14.292;2023-04-24T12:58:05;1.05;;;1.05;;
50417;SDS011;36346;48.280;14.292;2023-04-24T13:00:33;3.22;;;3.21;;
50417;SDS011;36346;48.280;14.292;2023-04-24T13:03:01;2.16;;;2.15;;
50417;SDS011;36346;48.280;14.292;2023-04-24T13:05:29;1.05;;;1.05;;
50417;SDS011;36346;48.280;14.292;2023-04-24T13:07:57;0.77;;;0.76;;
50417;SDS011;36346;48.280;14.292;2023-04-24T13:10:25;1.07;;;1.07;;
50417;SDS011;36346;48.280;14.292;2023-04-24T13:12:54;1.17;;;1.16;;
50417;SDS011;36346;48.280;14.292;2023-04-24T13:15:22;1.10;;;1.10;;
50417;SDS011;36346;48.280;14.292;2023-04-24T13:17:50;1.19;;;1.18;;
50417;SDS011;36346;48.280;14.292;2023-04-24T13:20:18;1.05;;;1.04;;
50417;SDS011;36346;48.280;14.292;2023-04-24T13:22:46;1.12;;;1.11;;
50417;SDS011;36346;48.280;14.292;2023-04-24T13:25:14;1.37;;;1.36;;
50417;SDS011;36346;48.280;14.292;2023-04-24T13:27:44;1.53;;;1.52;;
50417;SDS011;36346;48.280;14.292;2023-04-24T13:30:12;1.23;;;1.23;;
50417;SDS011;36346;48.280;14.292;2023-04-24T13:32:40;1.08;;;1.08;;
50417;SDS011;36346;48.280;14.292;2023-04-24T13:35:08;1.97;;;1.97;;
50417;SDS011;36346;48.280;14.292;2023-04-24T13:37:36;1.32;;;1.32;;
50417;SDS011;36346;48.280;14.292;2023-04-24T13:40:04;1.36;;;1.36;;
50417;SDS011;36346;48.280;14.292;2023-04-24T13:42:33;1.23;;;1.23;;
50417;SDS011;36346;48.280;14.292;2023-04-24T13:45:01;1.35;;;1.35;;
50417;SDS011;36346;48.280;14.292;2023-04-24T13:47:50;1.43;;;1.43;;
50417;SDS011;36346;48.280;14.292;2023-04-24T13:50:19;1.29;;;1.29;;
50417;SDS011;36346;48.280;14.292;2023-04-24T13:52:48;1.38;;;1.38;;
50417;SDS011;36346;48.280;14.292;2023-04-24T13:55:15;1.72;;;1.72;;
50417;SDS011;36346;48.280;14.292;2023-04-24T13:57:43;8.72;;;8.66;;
50417;SDS011;36346;48.280;14.292;2023-04-24T14:00:11;8.99;;;8.81;;
50417;SDS011;36346;48.280;14.292;2023-04-24T14:02:40;3.60;;;3.57;;
50417;SDS011;36346;48.280;14.292;2023-04-24T14:05:09;4.48;;;4.44;;
50417;SDS011;36346;48.280;14.292;2023-04-24T14:07:38;2.26;;;2.25;;
50417;SDS011;36346;48.280;14.292;2023-04-24T14:10:06;1.75;;;1.75;;
50417;SDS011;36346;48.280;14.292;2023-04-24T14:12:35;1.63;;;1.63;;
50417;SDS011;36346;48.280;14.292;2023-04-24T14:15:03;2.16;;;2.16;;
50417;SDS011;36346;48.280;14.292;2023-04-24T14:17:32;1.86;;;1.86;;
50417;SDS011;36346;48.280;14.292;2023-04-24T14:20:00;1.75;;;1.75;;
50417;SDS011;36346;48.280;14.292;2023-04-24T14:22:29;1.60;;;1.60;;
50417;SDS011;36346;48.280;14.292;2023-04-24T14:24:57;1.73;;;1.73;;
50417;SDS011;36346;48.280;14.292;2023-04-24T14:27:25;1.67;;;1.67;;
50417;SDS011;36346;48.280;14.292;2023-04-24T14:29:53;1.80;;;1.80;;
50417;SDS011;36346;48.280;14.292;2023-04-24T14:32:22;1.83;;;1.83;;
50417;SDS011;36346;48.280;14.292;2023-04-24T14:34:50;1.89;;;1.89;;
50417;SDS011;36346;48.280;14.292;2023-04-24T14:37:18;2.12;;;2.12;;
50417;SDS011;36346;48.280;14.292;2023-04-24T14:39:46;2.19;;;2.19;;
50417;SDS011;36346;48.280;14.292;2023-04-24T14:42:33;2.12;;;2.12;;
50417;SDS011;36346;48.280;14.292;2023-04-24T14:45:02;2.10;;;2.10;;
50417;SDS011;36346;48.280;14.292;2023-04-24T14:47:30;2.02;;;2.02;;
50417;SDS011;36346;48.280;14.292;2023-04-24T14:49:58;2.25;;;2.25;;
50417;SDS011;36346;48.280;14.292;2023-04-24T14:52:26;2.12;;;2.12;;
50417;SDS011;36346;48.280;14.292;2023-04-24T14:54:54;2.04;;;2.04;;
50417;SDS011;36346;48.280;14.292;2023-04-24T14:57:22;2.17;;;2.17;;
50417;SDS011;36346;48.280;14.292;2023-04-24T14:59:50;2.26;;;2.26;;
50417;SDS011;36346;48.280;14.292;2023-04-24T15:02:18;1.67;;;1.67;;
50417;SDS011;36346;48.280;14.292;2023-04-24T15:04:48;1.39;;;1.39;;
50417;SDS011;36346;48.280;14.292;2023-04-24T15:07:17;1.61;;;1.61;;